Time,TemperatureF,DewpointF,PressureIn,WindDirection,WindDirectionDegrees,WindSpeedMPH,WindSpeedGustMPH,Humidity,HourlyPrecipIn,Conditions,Clouds,dailyrainin,SoftwareType,DateUTC
2013-07-22 00:01:00,68.7,67.8,30.04,SE,145,0.0,0.0,97,0.00,,,0.35,WeatherDisplay:10.37,2013-07-22 04:01:00,
2013-07-22 00:06:00,68.6,67.7,30.04,SE,145,0.0,0.0,97,0.00,RA,,0.00,WeatherDisplay:10.37,2013-07-22 04:06:00,
2013-07-22 00:11:00,68.6,67.7,30.04,SE,145,0.0,0.0,97,0.00,,,0.00,WeatherDisplay:10.37,2013-07-22 04:11:00,
2013-07-22 00:16:00,68.6,68.0,30.04,SE,145,0.0,0.0,98,0.00,,,0.00,WeatherDisplay:10.37,2013-07-22 04:16:00,
2013-07-22 00:21:00,68.7,68.1,30.04,SE,145,0.0,0.0,98,0.00,,,0.00,WeatherDisplay:10.37,2013-07-22 04:21:00,
2013-07-22 00:26:00,68.8,68.2,30.03,SE,145,0.0,0.0,98,0.00,,,0.00,WeatherDisplay:10.37,2013-07-22 04:26:00,
2013-07-22 00:31:00,68.9,68.3,30.04,SE,145,0.0,0.0,98,0.00,,,0.00,WeatherDisplay:10.37,2013-07-22 04:31:00,
2013-07-22 00:36:00,68.8,67.9,30.04,SE,145,0.0,0.0,97,0.00,,,0.00,WeatherDisplay:10.37,2013-07-22 04:36:00,
2013-07-22 00:41:00,68.7,67.8,30.04,SE,145,0.0,0.0,97,0.00,,,0.00,WeatherDisplay:10.37,2013-07-22 04:41:00,
2013-07-22 00:46:00,68.7,67.8,30.04,SE,145,1.2,0.0,97,0.00,,,0.00,WeatherDisplay:10.37,2013-07-22 04:46:00,
2013-07-22 00:51:00,68.7,67.8,30.03,South,171,4.6,4.6,97,0.00,,,0.00,WeatherDisplay:10.37,2013-07-22 04:51:00,
2013-07-22 00:56:00,68.7,68.1,30.03,South,172,1.2,1.2,98,0.00,,,0.00,WeatherDisplay:10.37,2013-07-22 04:56:00,
2013-07-22 01:01:00,68.8,68.2,30.03,South,185,1.2,1.2,98,0.00,,,0.00,WeatherDisplay:10.37,2013-07-22 05:01:00,
2013-07-22 01:06:00,68.9,68.3,30.03,SSW,193,0.0,0.0,98,0.00,,,0.00,WeatherDisplay:10.37,2013-07-22 05:06:00,
2013-07-22 01:11:00,69.0,68.4,30.03,SSW,193,0.0,0.0,98,0.00,,,0.00,WeatherDisplay:10.37,2013-07-22 05:11:00,
2013-07-22 01:17:00,69.1,68.5,30.03,SSW,193,0.0,0.0,98,0.00,,,0.00,WeatherDisplay:10.37,2013-07-22 05:17:00,
2013-07-22 01:22:00,69.1,68.5,30.03,SSW,193,0.0,0.0,98,0.00,,,0.00,WeatherDisplay:10.37,2013-07-22 05:22:00,
2013-07-22 01:27:00,69.1,68.5,30.02,SSW,193,0.0,0.0,98,0.00,,,0.00,WeatherDisplay:10.37,2013-07-22 05:27:00,
2013-07-22 01:32:00,69.1,68.5,30.02,SSW,193,0.0,0.0,98,0.00,,,0.00,WeatherDisplay:10.37,2013-07-22 05:32:00,
2013-07-22 01:37:00,69.1,68.5,30.02,SSW,193,0.0,0.1,98,0.00,,,0.00,WeatherDisplay:10.37,2013-07-22 05:37:00,
2013-07-22 01:42:00,69.1,68.5,30.02,SSW,195,2.3,0.0,98,0.00,,,0.00,WeatherDisplay:10.37,2013-07-22 05:42:00,
2013-07-22 01:47:00,69.2,68.6,30.02,SSW,195,1.2,0.0,98,0.00,,,0.00,WeatherDisplay:10.37,2013-07-22 05:47:00,
2013-07-22 01:52:00,69.2,68.6,30.01,SSW,196,0.0,0.0,98,0.00,,,0.00,WeatherDisplay:10.37,2013-07-22 05:52:00,
2013-07-22 01:57:00,69.2,68.6,30.01,SSW,196,0.0,0.0,98,0.00,,,0.00,WeatherDisplay:10.37,2013-07-22 05:57:00,
2013-07-22 02:02:00,69.2,68.6,30.01,SSW,196,0.0,0.0,98,0.00,,,0.00,WeatherDisplay:10.37,2013-07-22 06:02:00,
2013-07-22 02:07:00,69.2,68.6,30.01,SSW,196,0.0,0.0,98,0.00,,,0.00,WeatherDisplay:10.37,2013-07-22 06:07:00,
2013-07-22 02:12:00,69.2,68.6,30.01,SSW,196,0.0,0.0,98,0.00,,,0.00,WeatherDisplay:10.37,2013-07-22 06:12:00,
2013-07-22 02:17:00,69.1,68.5,30.01,SSW,196,0.0,0.0,98,0.00,,,0.00,WeatherDisplay:10.37,2013-07-22 06:17:00,
2013-07-22 02:22:00,69.1,68.5,30.00,SSW,196,0.0,0.0,98,0.00,,,0.00,WeatherDisplay:10.37,2013-07-22 06:22:00,
2013-07-22 02:27:00,69.1,68.5,30.00,SSW,196,0.0,0.0,98,0.00,,,0.00,WeatherDisplay:10.37,2013-07-22 06:27:00,
2013-07-22 02:32:00,68.9,68.3,30.00,SSW,196,0.0,0.0,98,0.00,,,0.00,WeatherDisplay:10.37,2013-07-22 06:32:00,
2013-07-22 02:37:00,68.9,68.3,30.00,SSW,196,0.0,0.0,98,0.00,,,0.00,WeatherDisplay:10.37,2013-07-22 06:37:00,
2013-07-22 02:42:00,68.9,68.3,30.00,SSW,196,0.0,0.0,98,0.00,,,0.00,WeatherDisplay:10.37,2013-07-22 06:42:00,
2013-07-22 02:47:00,68.9,68.3,30.00,SSW,196,0.0,0.0,98,0.00,,,0.00,WeatherDisplay:10.37,2013-07-22 06:47:00,
2013-07-22 02:52:00,68.9,68.3,29.99,SSW,196,0.0,0.0,98,0.00,,,0.00,WeatherDisplay:10.37,2013-07-22 06:52:00,
2013-07-22 02:57:00,68.9,68.3,30.00,SSW,196,1.2,1.2,98,0.00,,,0.00,WeatherDisplay:10.37,2013-07-22 06:57:00,
2013-07-22 03:02:00,68.9,68.3,29.99,SSW,196,0.0,0.0,98,0.00,,,0.00,WeatherDisplay:10.37,2013-07-22 07:02:00,
2013-07-22 03:07:00,68.9,68.3,29.99,SSW,196,6.9,0.0,98,0.00,,,0.00,WeatherDisplay:10.37,2013-07-22 07:07:00,
2013-07-22 03:12:00,68.9,68.3,29.99,SSW,196,0.0,0.0,98,0.00,,,0.00,WeatherDisplay:10.37,2013-07-22 07:12:00,
2013-07-22 03:17:00,68.9,68.3,29.99,SSW,196,0.0,0.0,98,0.00,,,0.00,WeatherDisplay:10.37,2013-07-22 07:17:00,
2013-07-22 03:22:00,68.8,68.2,29.99,SSW,196,1.1,0.0,98,0.00,,,0.00,WeatherDisplay:10.37,2013-07-22 07:22:00,
2013-07-22 03:27:00,68.8,68.2,29.99,SSW,198,0.0,0.1,98,0.00,,,0.00,WeatherDisplay:10.37,2013-07-22 07:27:00,
2013-07-22 03:32:00,68.8,68.2,29.99,SSW,202,0.0,0.0,98,0.00,,,0.00,WeatherDisplay:10.37,2013-07-22 07:32:00,
2013-07-22 03:37:00,68.7,68.1,29.99,SSW,202,0.0,0.0,98,0.00,,,0.00,WeatherDisplay:10.37,2013-07-22 07:37:00,
2013-07-22 03:42:00,68.6,68.0,29.98,South,191,5.8,5.8,98,0.00,,,0.00,WeatherDisplay:10.37,2013-07-22 07:42:00,
2013-07-22 03:47:00,68.7,68.1,29.98,SSW,194,0.0,0.0,98,0.00,,,0.00,WeatherDisplay:10.37,2013-07-22 07:47:00,
2013-07-22 03:52:00,68.6,68.0,29.98,SSW,193,0.0,0.0,98,0.00,,,0.00,WeatherDisplay:10.37,2013-07-22 07:52:00,
2013-07-22 03:57:00,68.6,68.0,29.98,SSW,193,0.0,0.0,98,0.00,,,0.00,WeatherDisplay:10.37,2013-07-22 07:57:00,
2013-07-22 04:02:00,68.5,67.9,29.98,SSW,193,0.0,0.0,98,0.00,,,0.00,WeatherDisplay:10.37,2013-07-22 08:02:00,
2013-07-22 04:07:00,68.5,67.9,29.98,SSW,196,0.0,0.0,98,0.00,,,0.00,WeatherDisplay:10.37,2013-07-22 08:07:00,
2013-07-22 04:12:00,68.6,68.3,29.98,SSW,196,0.0,0.0,99,0.00,,,0.00,WeatherDisplay:10.37,2013-07-22 08:12:00,
2013-07-22 04:17:00,68.6,68.3,29.98,SSW,196,0.0,0.0,99,0.00,,,0.00,WeatherDisplay:10.37,2013-07-22 08:17:00,
2013-07-22 04:22:00,68.6,68.3,29.98,SSW,196,0.0,0.0,99,0.00,,,0.00,WeatherDisplay:10.37,2013-07-22 08:22:00,
2013-07-22 04:27:00,68.6,68.3,29.98,SSW,197,4.6,4.6,99,0.00,,,0.00,WeatherDisplay:10.37,2013-07-22 08:27:00,
2013-07-22 04:32:00,68.6,68.3,29.98,SW,227,2.7,2.7,99,0.00,,,0.00,WeatherDisplay:10.37,2013-07-22 08:32:00,
2013-07-22 04:37:00,68.6,68.3,29.98,SW,228,1.2,1.2,99,0.00,,,0.00,WeatherDisplay:10.37,2013-07-22 08:37:00,
2013-07-22 04:42:00,68.6,68.3,29.99,SW,224,0.0,0.0,99,0.00,,,0.00,WeatherDisplay:10.37,2013-07-22 08:42:00,
2013-07-22 04:47:00,68.6,68.3,29.98,WSW,238,0.0,0.0,99,0.00,,,0.00,WeatherDisplay:10.37,2013-07-22 08:47:00,
2013-07-22 04:52:00,68.6,68.3,29.98,South,191,0.0,0.0,99,0.00,,,0.00,WeatherDisplay:10.37,2013-07-22 08:52:00,
2013-07-22 04:57:00,68.6,68.3,29.98,South,191,1.2,1.2,99,0.00,,,0.00,WeatherDisplay:10.37,2013-07-22 08:57:00,
2013-07-22 05:02:00,68.6,68.3,29.98,South,191,0.0,0.0,99,0.00,,,0.00,WeatherDisplay:10.37,2013-07-22 09:02:00,
2013-07-22 05:07:00,68.6,68.3,29.98,South,191,0.0,0.0,99,0.00,,,0.00,WeatherDisplay:10.37,2013-07-22 09:07:00,
2013-07-22 05:12:00,68.6,68.3,29.99,South,191,0.0,0.0,99,0.00,,,0.00,WeatherDisplay:10.37,2013-07-22 09:12:00,
2013-07-22 05:17:00,68.6,68.3,29.99,South,191,0.0,0.0,99,0.00,,,0.00,WeatherDisplay:10.37,2013-07-22 09:17:00,
2013-07-22 05:22:00,68.6,68.3,29.99,South,191,0.0,0.0,99,0.00,,,0.00,WeatherDisplay:10.37,2013-07-22 09:22:00,
2013-07-22 05:27:00,68.6,68.3,29.99,South,184,2.3,2.3,99,0.00,,,0.00,WeatherDisplay:10.37,2013-07-22 09:27:00,
2013-07-22 05:32:00,68.6,68.3,29.99,South,184,0.0,0.0,99,0.00,,,0.00,WeatherDisplay:10.37,2013-07-22 09:32:00,
2013-07-22 05:37:00,68.6,68.3,29.99,SSW,200,1.2,0.0,99,0.00,,,0.00,WeatherDisplay:10.37,2013-07-22 09:37:00,
2013-07-22 05:42:00,68.5,67.9,29.99,SSW,202,0.0,0.0,98,0.00,,,0.00,WeatherDisplay:10.37,2013-07-22 09:42:00,
2013-07-22 05:47:00,68.5,67.9,29.99,SSW,204,5.8,5.8,98,0.00,,,0.00,WeatherDisplay:10.37,2013-07-22 09:47:00,
2013-07-22 05:52:00,68.5,67.9,29.98,South,181,3.5,3.5,98,0.00,,,0.00,WeatherDisplay:10.37,2013-07-22 09:52:00,
2013-07-22 05:57:00,68.5,67.9,29.98,SSW,197,0.0,0.0,98,0.00,,,0.00,WeatherDisplay:10.37,2013-07-22 09:57:00,
2013-07-22 06:02:00,68.5,67.9,29.99,South,190,1.2,0.0,98,0.00,,,0.00,WeatherDisplay:10.37,2013-07-22 10:02:00,
2013-07-22 06:07:00,68.4,67.8,29.99,South,190,0.0,0.0,98,0.00,,,0.00,WeatherDisplay:10.37,2013-07-22 10:07:00,
2013-07-22 06:12:00,68.5,67.9,29.99,South,190,0.0,0.0,98,0.00,,,0.00,WeatherDisplay:10.37,2013-07-22 10:12:00,
2013-07-22 06:17:00,68.5,67.9,29.99,South,190,0.0,0.0,98,0.00,,,0.00,WeatherDisplay:10.37,2013-07-22 10:17:00,
2013-07-22 06:22:00,68.5,68.2,29.98,South,190,1.2,1.2,99,0.00,,,0.00,WeatherDisplay:10.37,2013-07-22 10:22:00,
2013-07-22 06:27:00,68.4,67.8,29.99,South,169,1.1,0.0,98,0.00,,,0.00,WeatherDisplay:10.37,2013-07-22 10:27:00,
2013-07-22 06:32:00,68.4,67.8,29.98,SE,145,2.3,2.3,98,0.00,,,0.00,WeatherDisplay:10.37,2013-07-22 10:32:00,
2013-07-22 06:37:00,68.4,67.8,29.99,South,169,4.6,4.6,98,0.00,,,0.00,WeatherDisplay:10.37,2013-07-22 10:37:00,
2013-07-22 06:42:00,68.4,67.8,29.99,SSW,202,8.1,8.1,98,0.00,,,0.00,WeatherDisplay:10.37,2013-07-22 10:42:00,
2013-07-22 06:47:00,68.3,67.7,29.99,SW,218,8.1,8.1,98,0.00,,,0.00,WeatherDisplay:10.37,2013-07-22 10:47:00,
2013-07-22 06:52:00,68.3,67.7,29.99,SW,234,4.0,4.0,98,0.00,,,0.00,WeatherDisplay:10.37,2013-07-22 10:52:00,
2013-07-22 06:57:00,68.3,67.7,30.00,SW,225,1.2,1.2,98,0.00,,,0.00,WeatherDisplay:10.37,2013-07-22 10:57:00,
2013-07-22 07:02:00,68.3,67.7,30.00,SW,225,4.0,4.0,98,0.00,,,0.00,WeatherDisplay:10.37,2013-07-22 11:02:00,
2013-07-22 07:07:00,68.4,67.8,30.00,SW,233,2.3,2.3,98,0.00,CLR,,0.00,WeatherDisplay:10.37,2013-07-22 11:07:00,
2013-07-22 07:12:00,68.4,67.8,30.00,WSW,238,5.8,5.8,98,0.00,,,0.00,WeatherDisplay:10.37,2013-07-22 11:12:00,
2013-07-22 07:17:00,68.3,67.7,30.00,South,191,0.0,0.0,98,0.00,,,0.00,WeatherDisplay:10.37,2013-07-22 11:17:00,
2013-07-22 07:22:00,68.4,67.8,30.00,SSW,198,5.4,5.4,98,0.00,,,0.00,WeatherDisplay:10.37,2013-07-22 11:22:00,
2013-07-22 07:27:00,68.3,67.7,30.00,SSW,206,3.5,0.0,98,0.00,,,0.00,WeatherDisplay:10.37,2013-07-22 11:27:00,
2013-07-22 07:32:00,68.3,67.7,30.00,SSW,208,1.2,1.2,98,0.00,,,0.00,WeatherDisplay:10.37,2013-07-22 11:32:00,
2013-07-22 07:37:00,68.3,67.7,30.01,SSW,205,4.4,4.4,98,0.00,,,0.00,WeatherDisplay:10.37,2013-07-22 11:37:00,
2013-07-22 07:42:00,68.3,67.7,30.01,SW,227,4.0,4.0,98,0.00,,,0.00,WeatherDisplay:10.37,2013-07-22 11:42:00,
2013-07-22 07:47:00,68.3,67.7,30.01,SW,230,2.3,0.0,98,0.00,,,0.00,WeatherDisplay:10.37,2013-07-22 11:47:00,
2013-07-22 07:52:00,68.3,67.7,30.01,SW,235,2.3,2.3,98,0.00,,,0.00,WeatherDisplay:10.37,2013-07-22 11:52:00,
2013-07-22 07:57:00,68.3,67.7,30.01,SSW,196,6.9,6.9,98,0.00,,,0.00,WeatherDisplay:10.37,2013-07-22 11:57:00,
2013-07-22 08:02:00,68.2,67.6,30.01,SW,224,3.5,3.5,98,0.00,,,0.00,WeatherDisplay:10.37,2013-07-22 12:02:00,
2013-07-22 08:07:00,68.2,67.6,30.01,SSW,205,10.4,10.4,98,0.00,,,0.00,WeatherDisplay:10.37,2013-07-22 12:07:00,
2013-07-22 08:12:00,68.1,67.5,30.01,SSW,207,9.2,9.2,98,0.00,CLR,,0.00,WeatherDisplay:10.37,2013-07-22 12:12:00,
2013-07-22 08:17:00,68.1,67.5,30.01,SW,216,1.2,1.2,98,0.00,CLR,,0.00,WeatherDisplay:10.37,2013-07-22 12:17:00,
2013-07-22 08:22:00,68.1,67.5,30.01,SSW,202,0.0,0.0,98,0.00,,,0.00,WeatherDisplay:10.37,2013-07-22 12:22:00,
2013-07-22 08:27:00,68.1,67.5,30.02,South,182,10.4,10.4,98,0.00,,,0.00,WeatherDisplay:10.37,2013-07-22 12:27:00,
2013-07-22 08:32:00,68.1,67.5,30.02,SW,215,4.0,4.0,98,0.00,,,0.00,WeatherDisplay:10.37,2013-07-22 12:32:00,
2013-07-22 08:37:00,68.1,67.5,30.03,SW,232,6.9,6.9,98,0.00,,,0.00,WeatherDisplay:10.37,2013-07-22 12:37:00,
2013-07-22 08:42:00,68.1,67.5,30.03,WSW,239,9.3,9.3,98,0.00,,,0.00,WeatherDisplay:10.37,2013-07-22 12:42:00,
2013-07-22 08:47:00,68.2,67.6,30.03,SSW,198,0.0,0.0,98,0.00,,,0.00,WeatherDisplay:10.37,2013-07-22 12:47:00,
2013-07-22 08:52:00,68.2,67.6,30.03,SW,230,9.2,9.2,98,0.00,CLR,,0.00,WeatherDisplay:10.37,2013-07-22 12:52:00,
2013-07-22 08:57:00,68.2,67.6,30.03,SSW,195,5.8,5.8,98,0.00,,,0.00,WeatherDisplay:10.37,2013-07-22 12:57:00,
2013-07-22 09:02:00,68.3,67.7,30.03,SSW,204,1.2,1.2,98,0.00,,,0.00,WeatherDisplay:10.37,2013-07-22 13:02:00,
2013-07-22 09:07:00,68.3,67.7,30.03,South,191,3.5,3.5,98,0.00,,,0.00,WeatherDisplay:10.37,2013-07-22 13:07:00,
2013-07-22 09:12:00,68.3,67.7,30.03,SSW,195,6.9,6.9,98,0.00,,,0.00,WeatherDisplay:10.37,2013-07-22 13:12:00,
2013-07-22 09:17:00,68.3,67.7,30.03,WSW,237,1.2,1.4,98,0.00,,,0.00,WeatherDisplay:10.37,2013-07-22 13:17:00,
2013-07-22 09:22:00,68.4,67.8,30.03,South,180,9.2,9.2,98,0.00,,,0.00,WeatherDisplay:10.37,2013-07-22 13:22:00,
2013-07-22 09:27:00,68.4,67.5,30.03,SSW,201,0.0,0.0,97,0.00,,,0.00,WeatherDisplay:10.37,2013-07-22 13:27:00,
2013-07-22 09:32:00,68.4,67.5,30.03,SSW,201,5.4,5.4,97,0.00,,,0.00,WeatherDisplay:10.37,2013-07-22 13:32:00,
2013-07-22 09:37:00,68.5,67.6,30.03,SSW,212,11.5,11.5,97,0.00,,,0.00,WeatherDisplay:10.37,2013-07-22 13:37:00,
2013-07-22 09:42:00,68.6,68.0,30.02,SSW,200,8.1,8.1,98,0.00,,,0.00,WeatherDisplay:10.37,2013-07-22 13:42:00,
2013-07-22 09:47:00,68.7,67.8,30.02,South,189,1.2,1.2,97,0.00,,,0.00,WeatherDisplay:10.37,2013-07-22 13:47:00,
2013-07-22 09:52:00,68.9,68.0,30.03,WSW,246,1.2,0.0,97,0.00,,,0.00,WeatherDisplay:10.37,2013-07-22 13:52:00,
2013-07-22 09:57:00,69.0,68.1,30.03,WSW,246,0.0,0.0,97,0.00,,,0.00,WeatherDisplay:10.37,2013-07-22 13:57:00,
2013-07-22 10:02:00,69.1,68.2,30.02,WSW,241,0.0,0.0,97,0.00,,,0.00,WeatherDisplay:10.37,2013-07-22 14:02:00,
2013-07-22 10:07:00,69.2,68.0,30.02,WSW,241,1.2,0.0,96,0.00,,,0.00,WeatherDisplay:10.37,2013-07-22 14:07:00,
2013-07-22 10:12:00,69.3,68.1,30.03,SW,218,1.2,1.2,96,0.00,,,0.00,WeatherDisplay:10.37,2013-07-22 14:12:00,
2013-07-22 10:17:00,69.4,68.2,30.03,SW,218,0.0,0.0,96,0.00,,,0.00,WeatherDisplay:10.37,2013-07-22 14:17:00,
2013-07-22 10:22:00,69.4,68.2,30.03,South,178,5.8,5.8,96,0.00,,,0.00,WeatherDisplay:10.37,2013-07-22 14:22:00,
2013-07-22 10:27:00,69.5,68.0,30.03,South,189,2.3,2.3,95,0.00,CLR,,0.00,WeatherDisplay:10.37,2013-07-22 14:27:00,
2013-07-22 10:32:00,69.6,68.1,30.03,SSW,195,11.5,11.5,95,0.00,CLR,,0.00,WeatherDisplay:10.37,2013-07-22 14:32:00,
2013-07-22 10:37:00,69.7,67.9,30.02,SSW,204,6.9,6.9,94,0.00,CLR,,0.00,WeatherDisplay:10.37,2013-07-22 14:37:00,
2013-07-22 10:42:00,69.8,68.0,30.02,SW,227,1.2,1.2,94,0.00,CLR,,0.00,WeatherDisplay:10.37,2013-07-22 14:42:00,
2013-07-22 10:48:00,70.0,68.5,30.02,SW,223,6.6,6.6,95,0.00,CLR,,0.00,WeatherDisplay:10.37,2013-07-22 14:48:00,
2013-07-22 10:53:00,70.2,68.4,30.02,SW,224,1.3,1.3,94,0.00,CLR,,0.00,WeatherDisplay:10.37,2013-07-22 14:53:00,
2013-07-22 10:58:00,70.4,68.6,30.03,SW,235,1.2,1.2,94,0.00,CLR,,0.00,WeatherDisplay:10.37,2013-07-22 14:58:00,
2013-07-22 11:03:00,70.5,69.0,30.03,SSW,193,1.2,1.2,95,0.00,CLR,,0.00,WeatherDisplay:10.37,2013-07-22 15:03:00,
2013-07-22 11:08:00,70.7,68.9,30.02,SSW,206,8.1,8.1,94,0.00,CLR,,0.00,WeatherDisplay:10.37,2013-07-22 15:08:00,
2013-07-22 11:13:00,71.0,69.2,30.03,WSW,243,3.5,3.5,94,0.00,CLR,,0.00,WeatherDisplay:10.37,2013-07-22 15:13:00,
2013-07-22 11:18:00,71.2,69.4,30.02,SW,227,9.2,0.0,94,0.00,CLR,,0.00,WeatherDisplay:10.37,2013-07-22 15:18:00,
2013-07-22 11:23:00,71.4,69.3,30.02,SSW,206,8.1,8.1,93,0.00,CLR,,0.00,WeatherDisplay:10.37,2013-07-22 15:23:00,
2013-07-22 11:28:00,71.6,69.2,30.02,SSW,209,9.8,9.8,92,0.00,CLR,,0.00,WeatherDisplay:10.37,2013-07-22 15:28:00,
2013-07-22 11:33:00,71.8,69.3,30.02,South,179,0.0,2.6,92,0.00,CLR,,0.00,WeatherDisplay:10.37,2013-07-22 15:33:00,
2013-07-22 11:38:00,72.0,69.5,30.02,WSW,243,9.2,9.2,92,0.00,CLR,,0.00,WeatherDisplay:10.37,2013-07-22 15:38:00,
2013-07-22 11:43:00,72.3,69.8,30.02,SSW,194,5.8,5.8,92,0.00,CLR,,0.00,WeatherDisplay:10.37,2013-07-22 15:43:00,
2013-07-22 11:48:00,72.5,69.7,30.02,SSW,208,6.9,6.9,91,0.00,CLR,,0.00,WeatherDisplay:10.37,2013-07-22 15:48:00,
2013-07-22 11:53:00,72.8,69.7,30.02,West,272,3.5,3.5,90,0.00,CLR,,0.00,WeatherDisplay:10.37,2013-07-22 15:53:00,
2013-07-22 11:58:00,73.0,70.2,30.02,SW,220,4.0,7.5,91,0.00,CLR,,0.00,WeatherDisplay:10.37,2013-07-22 15:58:00,
2013-07-22 12:03:00,73.2,70.1,30.02,South,191,8.1,8.1,90,0.00,CLR,,0.00,WeatherDisplay:10.37,2013-07-22 16:03:00,
2013-07-22 12:08:00,73.3,69.9,30.02,WSW,252,10.4,10.4,89,0.00,CLR,,0.00,WeatherDisplay:10.37,2013-07-22 16:08:00,
2013-07-22 12:13:00,73.4,70.0,30.02,SW,225,8.1,8.1,89,0.00,CLR,,0.00,WeatherDisplay:10.37,2013-07-22 16:13:00,
2013-07-22 12:18:00,73.6,69.8,30.02,SSW,195,7.6,7.6,88,0.00,CLR,,0.00,WeatherDisplay:10.37,2013-07-22 16:18:00,
2013-07-22 12:23:00,73.8,69.7,30.02,SW,217,6.9,6.9,87,0.00,CLR,,0.00,WeatherDisplay:10.37,2013-07-22 16:23:00,
2013-07-22 12:28:00,74.1,70.0,30.02,SW,223,10.4,10.4,87,0.00,CLR,,0.00,WeatherDisplay:10.37,2013-07-22 16:28:00,
2013-07-22 12:33:00,74.6,70.1,30.01,WSW,250,1.3,1.3,86,0.00,CLR,,0.00,WeatherDisplay:10.37,2013-07-22 16:33:00,
2013-07-22 12:38:00,75.2,70.4,30.01,SSW,201,12.0,12.0,85,0.00,CLR,,0.00,WeatherDisplay:10.37,2013-07-22 16:38:00,
2013-07-22 12:43:00,75.7,70.5,30.01,WSW,241,3.5,3.5,84,0.00,CLR,,0.00,WeatherDisplay:10.37,2013-07-22 16:43:00,
2013-07-22 12:48:00,76.1,70.2,30.01,SW,214,3.5,3.5,82,0.00,CLR,,0.00,WeatherDisplay:10.37,2013-07-22 16:48:00,
2013-07-22 12:53:00,76.8,70.5,30.00,WSW,239,3.5,3.5,81,0.00,CLR,,0.00,WeatherDisplay:10.37,2013-07-22 16:53:00,
2013-07-22 12:58:00,77.2,70.5,30.00,SW,236,5.3,5.3,80,0.00,CLR,,0.00,WeatherDisplay:10.37,2013-07-22 16:58:00,
2013-07-22 13:03:00,77.3,70.3,30.00,SSW,199,6.9,6.9,79,0.00,CLR,,0.00,WeatherDisplay:10.37,2013-07-22 17:03:00,
2013-07-22 13:08:00,77.2,70.5,30.00,SW,228,6.9,6.9,80,0.00,CLR,,0.00,WeatherDisplay:10.37,2013-07-22 17:08:00,
2013-07-22 13:13:00,77.0,70.7,30.00,SW,229,1.2,1.2,81,0.00,CLR,,0.00,WeatherDisplay:10.37,2013-07-22 17:13:00,
2013-07-22 13:18:00,76.8,70.9,30.00,SSW,198,5.8,5.8,82,0.00,CLR,,0.00,WeatherDisplay:10.37,2013-07-22 17:18:00,
2013-07-22 13:23:00,76.6,71.0,30.00,SSW,195,0.0,0.0,83,0.00,CLR,,0.00,WeatherDisplay:10.37,2013-07-22 17:23:00,
2013-07-22 13:28:00,76.4,70.9,30.00,SW,223,0.0,0.0,83,0.00,CLR,,0.00,WeatherDisplay:10.37,2013-07-22 17:28:00,
2013-07-22 13:33:00,76.2,70.7,30.00,WSW,244,2.3,2.3,83,0.00,CLR,,0.00,WeatherDisplay:10.37,2013-07-22 17:33:00,
2013-07-22 13:38:00,75.9,70.7,30.00,SW,230,0.0,0.7,84,0.00,CLR,,0.00,WeatherDisplay:10.37,2013-07-22 17:38:00,
2013-07-22 13:43:00,75.6,70.8,29.99,South,190,1.2,0.0,85,0.01,RA,,0.01,WeatherDisplay:10.37,2013-07-22 17:43:00,
2013-07-22 13:48:00,75.3,70.8,29.99,SSW,196,4.6,4.6,86,0.01,RA,,0.01,WeatherDisplay:10.37,2013-07-22 17:48:00,
2013-07-22 13:53:00,75.0,70.5,29.99,SSW,198,1.2,0.0,86,0.01,,,0.01,WeatherDisplay:10.37,2013-07-22 17:53:00,
2013-07-22 13:58:00,74.7,70.6,29.99,SSW,200,0.0,0.0,87,0.01,CLR,,0.01,WeatherDisplay:10.37,2013-07-22 17:58:00,
2013-07-22 14:03:00,74.4,70.6,29.99,SSW,200,0.0,0.0,88,0.05,RA,,0.07,WeatherDisplay:10.37,2013-07-22 18:03:00,
2013-07-22 14:08:00,74.1,71.3,29.99,SSW,200,0.0,0.0,91,0.08,RA,,0.08,WeatherDisplay:10.37,2013-07-22 18:08:00,
2013-07-22 14:13:00,73.8,71.0,29.99,SW,235,5.3,5.3,91,0.08,RA,,0.08,WeatherDisplay:10.37,2013-07-22 18:13:00,
2013-07-22 14:19:00,73.2,70.4,29.99,SSW,212,8.1,8.1,91,0.10,RA,,0.10,WeatherDisplay:10.37,2013-07-22 18:19:00,
2013-07-22 14:24:00,72.6,69.8,29.99,SSW,196,12.7,12.7,91,0.11,RA,,0.11,WeatherDisplay:10.37,2013-07-22 18:24:00,
2013-07-22 14:29:00,72.1,69.6,29.99,SSW,194,10.4,10.4,92,0.11,RA,,0.11,WeatherDisplay:10.37,2013-07-22 18:29:00,
2013-07-22 14:34:00,71.8,69.7,29.99,SSW,196,9.2,9.2,93,0.11,CLR,,0.11,WeatherDisplay:10.37,2013-07-22 18:34:00,
2013-07-22 14:39:00,71.4,69.6,29.99,SSW,207,16.1,16.1,94,0.11,CLR,,0.11,WeatherDisplay:10.37,2013-07-22 18:39:00,
2013-07-22 14:45:00,71.2,69.1,29.98,SW,214,5.8,5.8,93,0.10,CLR,,0.11,WeatherDisplay:10.37,2013-07-22 18:45:00,
2013-07-22 14:50:00,70.9,69.4,29.98,SSW,194,8.1,8.1,95,0.10,CLR,,0.11,WeatherDisplay:10.37,2013-07-22 18:50:00,
2013-07-22 14:55:00,70.9,69.4,29.98,SSE,162,8.1,8.1,95,0.10,CLR,,0.11,WeatherDisplay:10.37,2013-07-22 18:55:00,
2013-07-22 15:00:00,71.1,70.2,29.97,SSW,201,1.2,1.2,97,0.10,CLR,,0.11,WeatherDisplay:10.37,2013-07-22 19:00:00,
2013-07-22 15:05:00,71.4,70.5,29.96,WSW,242,5.8,0.0,97,0.04,,,0.11,WeatherDisplay:10.37,2013-07-22 19:05:00,
2013-07-22 15:10:00,71.8,71.2,29.96,SSE,157,2.3,2.3,98,0.03,,,0.11,WeatherDisplay:10.37,2013-07-22 19:10:00,
2013-07-22 15:15:00,72.2,71.0,29.96,South,175,10.4,10.4,96,0.02,,,0.11,WeatherDisplay:10.37,2013-07-22 19:15:00,
2013-07-22 15:20:00,72.5,71.0,29.96,SW,220,5.8,5.8,95,0.01,CLR,,0.11,WeatherDisplay:10.37,2013-07-22 19:20:00,
2013-07-22 15:25:00,72.7,70.9,29.96,SSW,210,8.1,8.1,94,0.00,CLR,,0.11,WeatherDisplay:10.37,2013-07-22 19:25:00,
2013-07-22 15:30:00,73.0,70.9,29.96,SW,227,6.9,6.9,93,0.00,CLR,,0.11,WeatherDisplay:10.37,2013-07-22 19:30:00,
2013-07-22 15:35:00,73.2,70.4,29.95,SW,227,9.2,9.2,91,0.00,CLR,,0.11,WeatherDisplay:10.37,2013-07-22 19:35:00,
2013-07-22 15:40:00,73.3,70.5,29.95,SSW,192,13.8,13.8,91,0.00,CLR,,0.11,WeatherDisplay:10.37,2013-07-22 19:40:00,
2013-07-22 15:45:00,73.3,70.2,29.95,SSW,198,5.8,5.8,90,0.00,CLR,,0.11,WeatherDisplay:10.37,2013-07-22 19:45:00,
2013-07-22 15:50:00,73.3,70.2,29.95,SSW,210,1.3,1.3,90,0.00,CLR,,0.11,WeatherDisplay:10.37,2013-07-22 19:50:00,
2013-07-22 15:55:00,73.4,70.3,29.95,South,188,3.5,3.5,90,0.00,CLR,,0.11,WeatherDisplay:10.37,2013-07-22 19:55:00,
2013-07-22 16:00:00,73.6,70.5,29.95,SW,222,1.2,1.2,90,0.00,CLR,,0.11,WeatherDisplay:10.37,2013-07-22 20:00:00,
2013-07-22 16:05:00,73.8,71.0,29.94,SSW,205,10.4,10.4,91,0.00,CLR,,0.11,WeatherDisplay:10.37,2013-07-22 20:05:00,
2013-07-22 16:10:00,74.0,71.2,29.94,SSW,200,9.2,9.2,91,0.00,CLR,,0.11,WeatherDisplay:10.37,2013-07-22 20:10:00,
2013-07-22 16:15:00,74.1,70.6,29.94,South,191,8.1,8.1,89,0.00,CLR,,0.11,WeatherDisplay:10.37,2013-07-22 20:15:00,
2013-07-22 16:16:00,74.1,70.6,29.94,South,175,8.1,8.1,89,0.00,CLR,,0.11,WeatherDisplay:10.37,2013-07-22 20:16:00,
2013-07-22 16:17:00,74.2,70.7,29.94,South,175,8.1,8.1,89,0.00,CLR,,0.11,WeatherDisplay:10.37,2013-07-22 20:17:00,
2013-07-22 16:22:00,74.2,71.1,29.93,SSW,210,6.9,6.9,90,0.00,CLR,,0.11,WeatherDisplay:10.37,2013-07-22 20:22:00,
2013-07-22 16:27:00,74.3,71.2,29.92,SW,233,1.2,1.2,90,0.00,CLR,,0.11,WeatherDisplay:10.37,2013-07-22 20:27:00,
2013-07-22 16:32:00,74.3,71.2,29.92,SW,233,0.0,0.0,90,0.00,CLR,,0.11,WeatherDisplay:10.37,2013-07-22 20:32:00,
2013-07-22 16:37:00,74.4,71.6,29.92,SSW,212,8.1,8.1,91,0.00,CLR,,0.11,WeatherDisplay:10.37,2013-07-22 20:37:00,
2013-07-22 16:42:00,74.5,71.7,29.92,SSW,212,0.0,0.0,91,0.00,CLR,,0.11,WeatherDisplay:10.37,2013-07-22 20:42:00,
2013-07-22 16:43:00,74.5,71.7,29.92,SSW,212,0.0,0.0,91,0.00,CLR,,0.11,WeatherDisplay:10.37,2013-07-22 20:43:00,
2013-07-22 16:48:00,74.5,71.7,29.91,SW,219,2.3,2.3,91,0.00,CLR,,0.11,WeatherDisplay:10.37,2013-07-22 20:48:00,
2013-07-22 16:53:00,74.6,71.8,29.91,SSW,204,1.2,1.2,91,0.00,CLR,,0.11,WeatherDisplay:10.37,2013-07-22 20:53:00,
2013-07-22 16:58:00,74.7,71.6,29.91,West,270,1.2,0.0,90,0.00,CLR,,0.11,WeatherDisplay:10.37,2013-07-22 20:58:00,
2013-07-22 17:03:00,74.9,71.8,29.91,SSW,213,2.3,2.3,90,0.00,CLR,,0.11,WeatherDisplay:10.37,2013-07-22 21:03:00,
2013-07-22 17:08:00,75.2,72.4,29.92,SW,225,1.2,1.2,91,0.00,CLR,,0.11,WeatherDisplay:10.37,2013-07-22 21:08:00,
2013-07-22 17:13:00,75.4,71.9,29.92,SW,228,1.3,1.3,89,0.00,CLR,,0.11,WeatherDisplay:10.37,2013-07-22 21:13:00,
2013-07-22 17:18:00,75.5,71.4,29.92,SW,228,0.0,0.2,87,0.00,CLR,,0.11,WeatherDisplay:10.37,2013-07-22 21:18:00,
2013-07-22 17:23:00,75.5,71.4,29.92,WSW,250,4.0,4.0,87,0.00,CLR,,0.11,WeatherDisplay:10.37,2013-07-22 21:23:00,
2013-07-22 17:28:00,75.5,71.4,29.91,SW,227,6.9,6.9,87,0.00,CLR,,0.11,WeatherDisplay:10.37,2013-07-22 21:28:00,
2013-07-22 17:33:00,75.6,71.5,29.91,SW,220,2.3,0.0,87,0.00,CLR,,0.11,WeatherDisplay:10.37,2013-07-22 21:33:00,
2013-07-22 17:38:00,75.6,71.5,29.91,WSW,241,6.9,6.9,87,0.00,CLR,,0.11,WeatherDisplay:10.37,2013-07-22 21:38:00,
2013-07-22 17:43:00,75.6,71.5,29.91,WSW,237,6.9,6.9,87,0.00,CLR,,0.11,WeatherDisplay:10.37,2013-07-22 21:43:00,
2013-07-22 17:48:00,75.6,72.1,29.90,SW,233,2.3,0.0,89,0.00,CLR,,0.11,WeatherDisplay:10.37,2013-07-22 21:48:00,
2013-07-22 17:53:00,75.6,72.1,29.90,SSE,166,0.0,0.0,89,0.00,CLR,,0.11,WeatherDisplay:10.37,2013-07-22 21:53:00,
2013-07-22 17:58:00,75.7,72.2,29.90,WSW,244,1.2,1.2,89,0.00,CLR,,0.11,WeatherDisplay:10.37,2013-07-22 21:58:00,
2013-07-22 18:03:00,75.8,72.7,29.90,WSW,258,3.5,3.5,90,0.00,CLR,,0.11,WeatherDisplay:10.37,2013-07-22 22:03:00,
2013-07-22 18:08:00,75.9,72.4,29.90,SSW,202,9.2,9.2,89,0.00,CLR,,0.11,WeatherDisplay:10.37,2013-07-22 22:08:00,
2013-07-22 18:13:00,75.8,71.7,29.90,SW,224,11.5,11.5,87,0.00,CLR,,0.11,WeatherDisplay:10.37,2013-07-22 22:13:00,
2013-07-22 18:18:00,75.7,71.9,29.89,SW,217,13.3,13.3,88,0.00,CLR,,0.11,WeatherDisplay:10.37,2013-07-22 22:18:00,
2013-07-22 18:23:00,75.7,71.9,29.89,SSW,206,1.1,1.1,88,0.00,CLR,,0.11,WeatherDisplay:10.37,2013-07-22 22:23:00,
2013-07-22 18:28:00,75.7,71.6,29.90,SW,231,9.3,9.3,87,0.00,CLR,,0.11,WeatherDisplay:10.37,2013-07-22 22:28:00,
2013-07-22 18:33:00,75.7,71.6,29.89,SSW,207,4.6,4.6,87,0.00,CLR,,0.11,WeatherDisplay:10.37,2013-07-22 22:33:00,
2013-07-22 18:38:00,75.6,71.1,29.89,SSW,194,8.0,8.0,86,0.00,CLR,,0.11,WeatherDisplay:10.37,2013-07-22 22:38:00,
2013-07-22 18:43:00,75.6,71.1,29.89,SW,228,9.3,9.3,86,0.00,CLR,,0.11,WeatherDisplay:10.37,2013-07-22 22:43:00,
2013-07-22 18:48:00,75.5,70.7,29.89,South,180,16.1,16.1,85,0.00,CLR,,0.11,WeatherDisplay:10.37,2013-07-22 22:48:00,
2013-07-22 18:54:00,75.5,70.7,29.89,WSW,243,10.4,10.4,85,0.00,CLR,,0.11,WeatherDisplay:10.37,2013-07-22 22:54:00,
2013-07-22 18:59:00,75.4,70.2,29.89,SW,224,8.1,10.8,84,0.00,CLR,,0.11,WeatherDisplay:10.37,2013-07-22 22:59:00,
2013-07-22 19:04:00,75.3,70.1,29.90,SW,235,6.9,6.9,84,0.00,CLR,,0.11,WeatherDisplay:10.37,2013-07-22 23:04:00,
2013-07-22 19:09:00,75.2,70.4,29.90,SW,231,8.1,8.1,85,0.00,CLR,,0.11,WeatherDisplay:10.37,2013-07-22 23:09:00,
2013-07-22 19:14:00,75.0,70.5,29.90,SSW,208,15.0,15.0,86,0.00,CLR,,0.11,WeatherDisplay:10.37,2013-07-22 23:14:00,
2013-07-22 19:19:00,74.9,70.4,29.90,SW,230,10.6,10.6,86,0.00,CLR,,0.11,WeatherDisplay:10.37,2013-07-22 23:19:00,
2013-07-22 19:24:00,74.7,70.2,29.90,South,188,4.4,4.4,86,0.00,CLR,,0.11,WeatherDisplay:10.37,2013-07-22 23:24:00,
2013-07-22 19:29:00,74.5,70.4,29.90,NW,313,1.1,0.0,87,0.00,CLR,,0.11,WeatherDisplay:10.37,2013-07-22 23:29:00,
2013-07-22 19:34:00,74.4,70.6,29.91,NW,313,1.2,0.0,88,0.00,CLR,,0.11,WeatherDisplay:10.37,2013-07-22 23:34:00,
2013-07-22 19:49:00,73.3,70.8,29.92,SSW,194,5.8,5.8,92,0.37,RA,,0.48,WeatherDisplay:10.37,2013-07-22 23:49:00,
2013-07-22 19:54:00,72.8,70.7,29.92,SSW,199,0.0,0.0,93,0.38,RA,,0.49,WeatherDisplay:10.37,2013-07-22 23:54:00,
2013-07-22 19:59:00,72.4,70.3,29.92,SSW,200,0.0,0.0,93,0.38,RA,,0.49,WeatherDisplay:10.37,2013-07-22 23:59:00,
2013-07-22 20:04:00,72.0,70.2,29.92,SSW,199,0.0,0.0,94,0.38,CLR,,0.49,WeatherDisplay:10.37,2013-07-23 00:04:00,
2013-07-22 20:09:00,71.6,69.5,29.92,SSW,200,1.2,0.0,93,0.38,CLR,,0.49,WeatherDisplay:10.37,2013-07-23 00:09:00,
2013-07-22 20:14:00,71.1,69.3,29.92,SSW,198,0.0,0.0,94,0.38,CLR,,0.49,WeatherDisplay:10.37,2013-07-23 00:14:00,
2013-07-22 20:19:00,70.7,69.2,29.92,SSW,197,0.0,0.0,95,0.38,CLR,,0.49,WeatherDisplay:10.37,2013-07-23 00:19:00,
2013-07-22 20:24:00,70.5,69.0,29.92,SSW,197,0.0,0.0,95,0.38,CLR,,0.49,WeatherDisplay:10.37,2013-07-23 00:24:00,
2013-07-22 20:29:00,70.3,68.8,29.92,SSW,203,1.2,0.0,95,0.38,CLR,,0.49,WeatherDisplay:10.37,2013-07-23 00:29:00,
2013-07-22 20:34:00,70.1,68.9,29.93,SSW,203,1.2,0.0,96,0.38,,,0.49,WeatherDisplay:10.37,2013-07-23 00:34:00,
2013-07-22 20:39:00,70.0,68.8,29.93,SSW,203,0.0,0.0,96,0.31,,,0.49,WeatherDisplay:10.37,2013-07-23 00:39:00,
2013-07-22 20:44:00,70.0,68.8,29.93,SSW,203,0.0,0.0,96,0.05,,,0.49,WeatherDisplay:10.37,2013-07-23 00:44:00,
2013-07-22 20:49:00,69.8,68.6,29.93,SSW,206,0.0,0.6,96,0.01,,,0.49,WeatherDisplay:10.37,2013-07-23 00:49:00,
2013-07-22 20:54:00,69.8,68.9,29.93,SSW,206,0.0,0.0,97,0.00,,,0.49,WeatherDisplay:10.37,2013-07-23 00:54:00,
2013-07-22 20:59:00,69.7,68.8,29.93,NW,306,4.6,4.6,97,0.00,,,0.49,WeatherDisplay:10.37,2013-07-23 00:59:00,
2013-07-22 21:04:00,69.6,68.4,29.93,NW,308,0.0,0.0,96,0.00,,,0.49,WeatherDisplay:10.37,2013-07-23 01:04:00,
2013-07-22 21:09:00,69.6,68.4,29.94,NW,308,0.0,0.0,96,0.00,,,0.49,WeatherDisplay:10.37,2013-07-23 01:09:00,
2013-07-22 21:14:00,69.5,68.3,29.94,NW,308,0.0,0.0,96,0.00,,,0.49,WeatherDisplay:10.37,2013-07-23 01:14:00,
2013-07-22 21:19:00,69.5,68.3,29.94,NW,308,0.0,0.0,96,0.00,,,0.49,WeatherDisplay:10.37,2013-07-23 01:19:00,
2013-07-22 21:24:00,69.6,68.4,29.94,NW,308,0.0,0.0,96,0.00,,,0.49,WeatherDisplay:10.37,2013-07-23 01:24:00,
2013-07-22 21:29:00,69.6,68.7,29.94,NW,308,0.0,0.0,97,0.00,,,0.49,WeatherDisplay:10.37,2013-07-23 01:29:00,
2013-07-22 21:34:00,69.6,68.7,29.94,WNW,302,1.2,0.0,97,0.00,,,0.49,WeatherDisplay:10.37,2013-07-23 01:34:00,
2013-07-22 21:39:00,69.5,68.6,29.94,WNW,302,0.0,0.0,97,0.00,,,0.49,WeatherDisplay:10.37,2013-07-23 01:39:00,
2013-07-22 21:44:00,69.5,68.6,29.94,WNW,302,0.0,0.0,97,0.00,,,0.49,WeatherDisplay:10.37,2013-07-23 01:44:00,
2013-07-22 21:49:00,69.5,68.6,29.94,WNW,302,0.0,0.0,97,0.00,,,0.49,WeatherDisplay:10.37,2013-07-23 01:49:00,
2013-07-22 21:54:00,69.5,68.6,29.94,WNW,302,0.0,0.0,97,0.00,,,0.49,WeatherDisplay:10.37,2013-07-23 01:54:00,
2013-07-22 21:59:00,69.4,68.5,29.94,WNW,302,0.0,0.0,97,0.00,,,0.49,WeatherDisplay:10.37,2013-07-23 01:59:00,
2013-07-22 22:04:00,69.3,68.1,29.95,WNW,302,0.0,0.0,96,0.00,,,0.49,WeatherDisplay:10.37,2013-07-23 02:04:00,
2013-07-22 22:09:00,69.2,68.3,29.95,WNW,302,0.0,0.0,97,0.00,,,0.49,WeatherDisplay:10.37,2013-07-23 02:09:00,
2013-07-22 22:14:00,69.2,68.3,29.94,WNW,302,0.0,0.0,97,0.00,,,0.49,WeatherDisplay:10.37,2013-07-23 02:14:00,
2013-07-22 22:19:00,69.2,68.3,29.94,WNW,302,0.0,0.0,97,0.00,,,0.49,WeatherDisplay:10.37,2013-07-23 02:19:00,
2013-07-22 22:24:00,69.1,68.2,29.95,SSW,198,1.2,0.0,97,0.00,,,0.49,WeatherDisplay:10.37,2013-07-23 02:24:00,
2013-07-22 22:29:00,69.1,68.2,29.95,SSW,198,2.3,2.3,97,0.00,,,0.49,WeatherDisplay:10.37,2013-07-23 02:29:00,
2013-07-22 22:34:00,69.1,68.2,29.95,SSW,198,1.2,0.0,97,0.00,,,0.49,WeatherDisplay:10.37,2013-07-23 02:34:00,
2013-07-22 22:39:00,69.0,68.1,29.94,SSW,198,0.0,0.0,97,0.00,,,0.49,WeatherDisplay:10.37,2013-07-23 02:39:00,
2013-07-22 22:44:00,68.9,67.7,29.95,SSW,194,4.6,4.6,96,0.00,,,0.49,WeatherDisplay:10.37,2013-07-23 02:44:00,
2013-07-22 22:49:00,68.8,67.6,29.95,South,191,9.2,9.2,96,0.00,,,0.49,WeatherDisplay:10.37,2013-07-23 02:49:00,
2013-07-22 22:54:00,68.8,67.9,29.95,SSW,206,3.5,3.5,97,0.00,,,0.49,WeatherDisplay:10.37,2013-07-23 02:54:00,
2013-07-22 22:59:00,68.8,67.9,29.95,SW,231,3.5,3.5,97,0.00,,,0.49,WeatherDisplay:10.37,2013-07-23 02:59:00,
2013-07-22 23:04:00,68.9,68.0,29.95,SW,227,5.8,5.8,97,0.00,,,0.49,WeatherDisplay:10.37,2013-07-23 03:04:00,
2013-07-22 23:09:00,68.9,68.0,29.95,SW,221,0.0,0.0,97,0.00,,,0.49,WeatherDisplay:10.37,2013-07-23 03:09:00,
2013-07-22 23:14:00,68.9,68.0,29.95,SW,217,1.2,0.0,97,0.00,,,0.49,WeatherDisplay:10.37,2013-07-23 03:14:00,
2013-07-22 23:19:00,68.9,68.0,29.95,SSW,206,3.5,3.5,97,0.00,,,0.49,WeatherDisplay:10.37,2013-07-23 03:19:00,
2013-07-22 23:24:00,69.0,68.1,29.95,SW,222,0.0,0.0,97,0.00,,,0.49,WeatherDisplay:10.37,2013-07-23 03:24:00,
2013-07-22 23:29:00,69.0,68.1,29.95,SW,222,6.9,6.9,97,0.00,,,0.49,WeatherDisplay:10.37,2013-07-23 03:29:00,
2013-07-22 23:34:00,69.0,68.1,29.96,SSW,209,6.9,6.9,97,0.00,,,0.49,WeatherDisplay:10.37,2013-07-23 03:34:00,
2013-07-22 23:39:00,69.0,68.1,29.95,SW,228,8.1,8.1,97,0.00,,,0.49,WeatherDisplay:10.37,2013-07-23 03:39:00,
2013-07-22 23:44:00,69.0,68.1,29.96,SW,222,9.3,9.3,97,0.00,CLR,,0.49,WeatherDisplay:10.37,2013-07-23 03:44:00,
2013-07-22 23:49:00,68.9,68.0,29.96,SW,229,2.3,2.3,97,0.00,CLR,,0.49,WeatherDisplay:10.37,2013-07-23 03:49:00,
2013-07-22 23:54:00,68.9,68.0,29.96,South,183,9.2,9.2,97,0.00,,,0.49,WeatherDisplay:10.37,2013-07-23 03:54:00,
2013-07-22 23:59:00,68.8,67.9,29.96,SW,223,15.0,15.0,97,0.00,CLR,,0.49,WeatherDisplay:10.37,2013-07-23 03:59:00,